sensor_id;sensor_type;location;lat;lon;timestamp;pressure;altitude;pressure_sealevel;temperature;humidity
15884;BME280;8040;50.254;10.960;2023-04-07T00:01:44;98280.19;;;4.83;56.14
15884;BME280;8040;50.254;10.960;2023-04-07T00:04:09;98257.22;;;4.60;56.48
15884;BME280;8040;50.254;10.960;2023-04-07T00:06:35;98272.00;;;4.63;56.33
15884;BME280;8040;50.254;10.960;2023-04-07T00:09:00;98270.06;;;4.48;56.28
15884;BME280;8040;50.254;10.960;2023-04-07T00:11:26;98289.63;;;4.44;56.44
15884;BME280;8040;50.254;10.960;2023-04-07T00:13:51;98241.69;;;4.21;56.50
15884;BME280;8040;50.254;10.960;2023-04-07T00:16:17;98230.09;;;4.15;56.98
15884;BME280;8040;50.254;10.960;2023-04-07T00:18:42;98209.63;;;4.04;57.63
15884;BME280;8040;50.254;10.960;2023-04-07T00:21:08;98267.63;;;4.47;57.81
15884;BME280;8040;50.254;10.960;2023-04-07T00:23:33;98259.56;;;4.47;57.48
15884;BME280;8040;50.254;10.960;2023-04-07T00:25:58;98253.94;;;4.48;57.08
15884;BME280;8040;50.254;10.960;2023-04-07T00:28:25;98243.72;;;4.45;57.00
15884;BME280;8040;50.254;10.960;2023-04-07T00:30:50;98239.91;;;4.41;57.23
15884;BME280;8040;50.254;10.960;2023-04-07T00:33:16;98266.94;;;4.71;56.62
15884;BME280;8040;50.254;10.960;2023-04-07T00:35:41;98270.19;;;4.73;56.97
15884;BME280;8040;50.254;10.960;2023-04-07T00:38:07;98250.22;;;4.59;56.83
15884;BME280;8040;50.254;10.960;2023-04-07T00:40:32;98210.28;;;4.21;57.13
15884;BME280;8040;50.254;10.960;2023-04-07T00:42:58;98283.34;;;4.70;56.97
15884;BME280;8040;50.254;10.960;2023-04-07T00:45:23;98225.13;;;4.34;57.13
15884;BME280;8040;50.254;10.960;2023-04-07T00:47:49;98266.88;;;4.56;56.76
15884;BME280;8040;50.254;10.960;2023-04-07T00:50:14;98229.69;;;4.33;57.24
15884;BME280;8040;50.254;10.960;2023-04-07T00:52:40;98268.19;;;4.54;56.82
15884;BME280;8040;50.254;10.960;2023-04-07T00:55:06;98245.84;;;4.43;57.25
15884;BME280;8040;50.254;10.960;2023-04-07T00:57:32;98250.66;;;4.36;57.47
15884;BME280;8040;50.254;10.960;2023-04-07T00:59:57;98196.25;;;4.09;57.56
15884;BME280;8040;50.254;10.960;2023-04-07T01:05:16;98250.13;;;4.39;57.46
15884;BME280;8040;50.254;10.960;2023-04-07T01:13:30;98128.03;;;3.59;57.62
15884;BME280;8040;50.254;10.960;2023-04-07T01:16:03;98178.91;;;3.85;57.45
15884;BME280;8040;50.254;10.960;2023-04-07T01:18:32;98248.38;;;4.18;57.56
15884;BME280;8040;50.254;10.960;2023-04-07T01:21:13;98202.03;;;3.91;57.56
15884;BME280;8040;50.254;10.960;2023-04-07T01:26:31;98203.94;;;3.96;57.42
15884;BME280;8040;50.254;10.960;2023-04-07T01:31:57;98237.03;;;4.06;57.86
15884;BME280;8040;50.254;10.960;2023-04-07T01:34:25;98188.56;;;3.81;57.60
15884;BME280;8040;50.254;10.960;2023-04-07T01:36:53;98227.81;;;3.97;57.98
15884;BME280;8040;50.254;10.960;2023-04-07T01:39:19;98163.72;;;3.59;57.17
15884;BME280;8040;50.254;10.960;2023-04-07T01:41:46;98252.84;;;4.03;57.87
15884;BME280;8040;50.254;10.960;2023-04-07T01:44:12;98220.56;;;3.93;57.75
15884;BME280;8040;50.254;10.960;2023-04-07T01:46:38;98262.34;;;4.20;57.68
15884;BME280;8040;50.254;10.960;2023-04-07T01:49:04;98232.66;;;3.95;57.56
15884;BME280;8040;50.254;10.960;2023-04-07T01:51:31;98196.47;;;3.66;57.72
15884;BME280;8040;50.254;10.960;2023-04-07T01:53:58;98229.88;;;3.85;58.00
15884;BME280;8040;50.254;10.960;2023-04-07T01:56:23;98239.88;;;3.95;58.01
15884;BME280;8040;50.254;10.960;2023-04-07T01:58:49;98235.38;;;4.00;57.84
15884;BME280;8040;50.254;10.960;2023-04-07T02:01:14;98199.69;;;3.68;58.15
15884;BME280;8040;50.254;10.960;2023-04-07T02:03:45;98241.53;;;4.01;58.42
15884;BME280;8040;50.254;10.960;2023-04-07T02:06:18;98180.91;;;3.63;58.26
15884;BME280;8040;50.254;10.960;2023-04-07T02:08:49;98215.38;;;3.81;58.19
15884;BME280;8040;50.254;10.960;2023-04-07T02:11:17;98217.34;;;3.91;58.42
15884;BME280;8040;50.254;10.960;2023-04-07T02:13:44;98190.63;;;3.69;58.66
15884;BME280;8040;50.254;10.960;2023-04-07T02:16:11;98124.03;;;3.25;58.54
15884;BME280;8040;50.254;10.960;2023-04-07T02:18:37;98182.28;;;3.71;58.31
15884;BME280;8040;50.254;10.960;2023-04-07T02:21:03;98224.06;;;3.93;58.25
15884;BME280;8040;50.254;10.960;2023-04-07T02:23:30;98201.44;;;3.84;58.57
15884;BME280;8040;50.254;10.960;2023-04-07T02:25:56;98209.50;;;3.84;58.75
15884;BME280;8040;50.254;10.960;2023-04-07T02:28:22;98185.75;;;3.66;58.79
15884;BME280;8040;50.254;10.960;2023-04-07T02:30:47;98204.03;;;3.74;58.70
15884;BME280;8040;50.254;10.960;2023-04-07T02:33:13;98217.59;;;3.89;59.15
15884;BME280;8040;50.254;10.960;2023-04-07T02:35:38;98185.97;;;3.60;58.44
15884;BME280;8040;50.254;10.960;2023-04-07T02:38:04;98198.13;;;3.72;58.72
15884;BME280;8040;50.254;10.960;2023-04-07T02:40:29;98189.75;;;3.64;58.55
15884;BME280;8040;50.254;10.960;2023-04-07T02:42:55;98173.91;;;3.62;58.32
15884;BME280;8040;50.254;10.960;2023-04-07T02:45:20;98221.03;;;3.85;58.84
15884;BME280;8040;50.254;10.960;2023-04-07T02:47:45;98156.91;;;3.47;58.65
15884;BME280;8040;50.254;10.960;2023-04-07T02:50:11;98236.31;;;3.84;58.84
15884;BME280;8040;50.254;10.960;2023-04-07T02:52:36;98225.00;;;3.77;58.87
15884;BME280;8040;50.254;10.960;2023-04-07T02:55:02;98217.19;;;3.76;59.06
15884;BME280;8040;50.254;10.960;2023-04-07T02:57:27;98209.34;;;3.64;59.13
15884;BME280;8040;50.254;10.960;2023-04-07T02:59:53;98226.03;;;3.71;58.85
15884;BME280;8040;50.254;10.960;2023-04-07T03:02:20;98206.03;;;3.52;59.11
15884;BME280;8040;50.254;10.960;2023-04-07T03:04:45;98205.00;;;3.58;59.03
15884;BME280;8040;50.254;10.960;2023-04-07T03:07:11;98173.69;;;3.32;59.18
15884;BME280;8040;50.254;10.960;2023-04-07T03:09:36;98230.63;;;3.76;58.95
15884;BME280;8040;50.254;10.960;2023-04-07T03:12:01;98222.28;;;3.72;58.72
15884;BME280;8040;50.254;10.960;2023-04-07T03:14:27;98196.72;;;3.60;59.05
15884;BME280;8040;50.254;10.960;2023-04-07T03:16:53;98234.03;;;3.66;59.04
15884;BME280;8040;50.254;10.960;2023-04-07T03:19:18;98209.25;;;3.54;59.20
15884;BME280;8040;50.254;10.960;2023-04-07T03:21:43;98224.16;;;3.72;59.12
15884;BME280;8040;50.254;10.960;2023-04-07T03:24:09;98164.47;;;3.23;59.02
15884;BME280;8040;50.254;10.960;2023-04-07T03:26:34;98196.91;;;3.53;59.01
15884;BME280;8040;50.254;10.960;2023-04-07T03:29:00;98138.00;;;3.00;59.05
15884;BME280;8040;50.254;10.960;2023-04-07T03:31:25;98206.75;;;3.43;59.12
15884;BME280;8040;50.254;10.960;2023-04-07T03:33:51;98191.19;;;3.45;59.13
15884;BME280;8040;50.254;10.960;2023-04-07T03:36:16;98157.56;;;3.27;58.54
15884;BME280;8040;50.254;10.960;2023-04-07T03:38:43;98206.03;;;3.52;58.44
15884;BME280;8040;50.254;10.960;2023-04-07T03:41:08;98210.03;;;3.50;58.23
15884;BME280;8040;50.254;10.960;2023-04-07T03:43:34;98153.41;;;3.15;58.73
15884;BME280;8040;50.254;10.960;2023-04-07T03:46:00;98116.22;;;2.92;58.53
15884;BME280;8040;50.254;10.960;2023-04-07T03:48:25;98188.13;;;3.31;58.65
15884;BME280;8040;50.254;10.960;2023-04-07T03:50:51;98145.66;;;3.18;58.73
15884;BME280;8040;50.254;10.960;2023-04-07T03:53:16;98181.25;;;3.40;58.85
15884;BME280;8040;50.254;10.960;2023-04-07T03:55:43;98166.09;;;3.24;58.66
15884;BME280;8040;50.254;10.960;2023-04-07T03:58:09;98176.31;;;3.27;59.07
15884;BME280;8040;50.254;10.960;2023-04-07T04:00:35;98153.63;;;3.08;59.23
15884;BME280;8040;50.254;10.960;2023-04-07T04:03:01;98194.50;;;3.25;59.27
15884;BME280;8040;50.254;10.960;2023-04-07T04:05:26;98156.25;;;3.03;59.35
15884;BME280;8040;50.254;10.960;2023-04-07T04:07:52;98185.63;;;3.20;59.70
15884;BME280;8040;50.254;10.960;2023-04-07T04:10:20;98213.91;;;3.37;59.37
15884;BME280;8040;50.254;10.960;2023-04-07T04:12:47;98211.69;;;3.29;59.51
15884;BME280;8040;50.254;10.960;2023-04-07T04:15:13;98200.94;;;3.24;59.61
15884;BME280;8040;50.254;10.960;2023-04-07T04:17:39;98178.59;;;3.14;59.42
15884;BME280;8040;50.254;10.960;2023-04-07T04:20:04;98184.78;;;3.14;59.61
15884;BME280;8040;50.254;10.960;2023-04-07T04:22:30;98151.66;;;2.99;59.55
15884;BME280;8040;50.254;10.960;2023-04-07T04:24:56;98187.44;;;3.14;59.54
15884;BME280;8040;50.254;10.960;2023-04-07T04:27:21;98164.19;;;2.93;59.82
15884;BME280;8040;50.254;10.960;2023-04-07T04:29:47;98182.81;;;3.05;59.76
15884;BME280;8040;50.254;10.960;2023-04-07T04:32:13;98205.75;;;3.22;59.93
15884;BME280;8040;50.254;10.960;2023-04-07T04:34:39;98154.00;;;2.90;59.57
15884;BME280;8040;50.254;10.960;2023-04-07T04:37:06;98139.41;;;2.81;59.42
15884;BME280;8040;50.254;10.960;2023-04-07T04:39:32;98111.72;;;2.71;59.74
15884;BME280;8040;50.254;10.960;2023-04-07T04:41:57;98195.03;;;3.22;59.70
15884;BME280;8040;50.254;10.960;2023-04-07T04:44:23;98157.50;;;2.96;59.41
15884;BME280;8040;50.254;10.960;2023-04-07T04:46:48;98100.59;;;2.57;59.28
15884;BME280;8040;50.254;10.960;2023-04-07T04:49:14;98185.81;;;3.13;59.38
15884;BME280;8040;50.254;10.960;2023-04-07T04:51:40;98153.53;;;2.98;59.01
15884;BME280;8040;50.254;10.960;2023-04-07T04:54:06;98154.94;;;3.06;59.17
15884;BME280;8040;50.254;10.960;2023-04-07T04:56:32;98132.81;;;2.89;59.40
15884;BME280;8040;50.254;10.960;2023-04-07T04:58:57;98140.03;;;2.88;59.95
15884;BME280;8040;50.254;10.960;2023-04-07T05:01:22;98203.31;;;3.21;59.63
15884;BME280;8040;50.254;10.960;2023-04-07T05:03:48;98220.59;;;3.35;59.76
15884;BME280;8040;50.254;10.960;2023-04-07T05:06:13;98132.44;;;2.80;59.92
15884;BME280;8040;50.254;10.960;2023-04-07T05:08:39;98187.47;;;3.19;59.53
15884;BME280;8040;50.254;10.960;2023-04-07T05:11:04;98201.09;;;3.39;59.46
15884;BME280;8040;50.254;10.960;2023-04-07T05:13:30;98158.47;;;3.11;59.46
15884;BME280;8040;50.254;10.960;2023-04-07T05:15:55;98165.78;;;3.21;59.42
15884;BME280;8040;50.254;10.960;2023-04-07T05:18:21;98164.28;;;3.35;59.33
15884;BME280;8040;50.254;10.960;2023-04-07T05:20:48;98173.84;;;3.52;58.82
15884;BME280;8040;50.254;10.960;2023-04-07T05:23:13;98112.59;;;3.34;59.06
15884;BME280;8040;50.254;10.960;2023-04-07T05:25:38;98206.66;;;4.42;57.95
15884;BME280;8040;50.254;10.960;2023-04-07T05:28:05;98167.59;;;4.86;55.69
15884;BME280;8040;50.254;10.960;2023-04-07T05:30:30;98114.72;;;5.32;54.34
15884;BME280;8040;50.254;10.960;2023-04-07T05:32:56;98140.22;;;6.04;51.75
15884;BME280;8040;50.254;10.960;2023-04-07T05:35:21;98200.47;;;7.02;50.25
15884;BME280;8040;50.254;10.960;2023-04-07T05:37:46;98199.09;;;7.47;48.74
15884;BME280;8040;50.254;10.960;2023-04-07T05:40:12;98159.41;;;7.53;47.17
15884;BME280;8040;50.254;10.960;2023-04-07T05:42:38;98216.56;;;8.27;46.40
15884;BME280;8040;50.254;10.960;2023-04-07T05:45:04;98189.16;;;8.38;44.49
15884;BME280;8040;50.254;10.960;2023-04-07T05:47:29;98179.50;;;8.56;44.28
15884;BME280;8040;50.254;10.960;2023-04-07T05:49:55;98180.47;;;8.65;43.83
15884;BME280;8040;50.254;10.960;2023-04-07T05:52:20;98202.84;;;8.94;43.18
15884;BME280;8040;50.254;10.960;2023-04-07T05:54:45;98178.66;;;8.79;43.57
15884;BME280;8040;50.254;10.960;2023-04-07T05:57:11;98171.00;;;8.44;43.14
15884;BME280;8040;50.254;10.960;2023-04-07T05:59:36;98188.47;;;8.51;43.61
15884;BME280;8040;50.254;10.960;2023-04-07T06:02:02;98200.78;;;8.39;43.69
15884;BME280;8040;50.254;10.960;2023-04-07T06:04:28;98176.25;;;8.02;43.13
15884;BME280;8040;50.254;10.960;2023-04-07T06:06:54;98188.53;;;7.89;43.69
15884;BME280;8040;50.254;10.960;2023-04-07T06:09:23;98165.16;;;7.41;44.31
15884;BME280;8040;50.254;10.960;2023-04-07T06:11:48;98189.53;;;7.32;45.06
15884;BME280;8040;50.254;10.960;2023-04-07T06:14:16;98164.75;;;6.76;45.52
15884;BME280;8040;50.254;10.960;2023-04-07T06:16:41;98137.91;;;6.51;46.32
15884;BME280;8040;50.254;10.960;2023-04-07T06:19:07;98175.88;;;6.55;46.62
15884;BME280;8040;50.254;10.960;2023-04-07T06:21:32;98187.75;;;6.54;46.92
15884;BME280;8040;50.254;10.960;2023-04-07T06:23:58;98204.97;;;6.58;47.28
15884;BME280;8040;50.254;10.960;2023-04-07T06:26:24;98130.53;;;5.98;47.54
15884;BME280;8040;50.254;10.960;2023-04-07T06:28:49;98175.75;;;6.06;47.55
15884;BME280;8040;50.254;10.960;2023-04-07T06:31:15;98124.63;;;5.61;48.19
15884;BME280;8040;50.254;10.960;2023-04-07T06:33:41;98169.59;;;5.86;48.52
15884;BME280;8040;50.254;10.960;2023-04-07T06:36:06;98134.59;;;5.61;48.47
15884;BME280;8040;50.254;10.960;2023-04-07T06:38:32;98207.81;;;5.98;49.10
15884;BME280;8040;50.254;10.960;2023-04-07T06:40:57;98200.50;;;5.78;49.32
15884;BME280;8040;50.254;10.960;2023-04-07T06:43:23;98184.09;;;5.60;49.38
15884;BME280;8040;50.254;10.960;2023-04-07T06:45:48;98100.69;;;5.10;49.56
15884;BME280;8040;50.254;10.960;2023-04-07T06:48:14;98197.56;;;5.70;49.83
15884;BME280;8040;50.254;10.960;2023-04-07T06:50:40;98192.69;;;5.72;49.54
15884;BME280;8040;50.254;10.960;2023-04-07T06:53:05;98169.56;;;5.66;49.56
15884;BME280;8040;50.254;10.960;2023-04-07T06:55:31;98195.44;;;5.82;49.51
15884;BME280;8040;50.254;10.960;2023-04-07T06:57:56;98200.53;;;5.83;49.24
15884;BME280;8040;50.254;10.960;2023-04-07T07:00:21;98163.91;;;5.72;49.63
15884;BME280;8040;50.254;10.960;2023-04-07T07:02:48;98202.69;;;6.01;48.82
15884;BME280;8040;50.254;10.960;2023-04-07T07:05:14;98146.44;;;5.85;48.79
15884;BME280;8040;50.254;10.960;2023-04-07T07:07:39;98155.59;;;5.84;48.64
15884;BME280;8040;50.254;10.960;2023-04-07T07:10:07;98166.09;;;6.00;48.77
15884;BME280;8040;50.254;10.960;2023-04-07T07:12:33;98203.16;;;6.43;48.88
15884;BME280;8040;50.254;10.960;2023-04-07T07:14:58;98167.59;;;6.36;48.55
15884;BME280;8040;50.254;10.960;2023-04-07T07:17:24;98140.44;;;6.28;48.14
15884;BME280;8040;50.254;10.960;2023-04-07T07:19:49;98201.66;;;6.81;48.21
15884;BME280;8040;50.254;10.960;2023-04-07T07:22:14;98167.97;;;6.78;47.96
15884;BME280;8040;50.254;10.960;2023-04-07T07:24:40;98131.94;;;6.54;47.69
15884;BME280;8040;50.254;10.960;2023-04-07T07:27:05;98188.09;;;7.01;47.56
15884;BME280;8040;50.254;10.960;2023-04-07T07:29:31;98197.69;;;7.17;47.60
15884;BME280;8040;50.254;10.960;2023-04-07T07:31:56;98133.13;;;6.87;47.10
15884;BME280;8040;50.254;10.960;2023-04-07T07:34:22;98163.16;;;7.18;46.85
15884;BME280;8040;50.254;10.960;2023-04-07T07:36:47;98192.94;;;7.47;46.60
15884;BME280;8040;50.254;10.960;2023-04-07T07:39:12;98152.25;;;7.33;46.00
15884;BME280;8040;50.254;10.960;2023-04-07T07:41:38;98201.09;;;7.70;45.57
15884;BME280;8040;50.254;10.960;2023-04-07T07:44:04;98133.03;;;7.40;45.23
15884;BME280;8040;50.254;10.960;2023-04-07T07:46:29;98158.41;;;7.72;45.23
15884;BME280;8040;50.254;10.960;2023-04-07T07:48:54;98189.78;;;8.02;45.09
15884;BME280;8040;50.254;10.960;2023-04-07T07:51:20;98177.28;;;8.06;45.10
15884;BME280;8040;50.254;10.960;2023-04-07T07:53:46;98181.88;;;8.10;44.54
15884;BME280;8040;50.254;10.960;2023-04-07T07:56:12;98182.81;;;8.24;44.93
15884;BME280;8040;50.254;10.960;2023-04-07T07:58:37;98185.81;;;8.23;44.73
15884;BME280;8040;50.254;10.960;2023-04-07T08:01:02;98178.16;;;8.30;44.06
15884;BME280;8040;50.254;10.960;2023-04-07T08:03:28;98200.03;;;8.57;44.72
15884;BME280;8040;50.254;10.960;2023-04-07T08:05:56;98196.00;;;8.54;43.55
15884;BME280;8040;50.254;10.960;2023-04-07T08:08:21;98190.88;;;8.53;43.51
15884;BME280;8040;50.254;10.960;2023-04-07T08:10:47;98153.78;;;8.35;43.97
15884;BME280;8040;50.254;10.960;2023-04-07T08:13:13;98168.69;;;8.56;43.62
15884;BME280;8040;50.254;10.960;2023-04-07T08:15:38;98190.25;;;8.61;43.04
15884;BME280;8040;50.254;10.960;2023-04-07T08:18:04;98146.19;;;8.37;43.20
15884;BME280;8040;50.254;10.960;2023-04-07T08:20:30;98132.41;;;8.38;43.34
15884;BME280;8040;50.254;10.960;2023-04-07T08:22:56;98202.41;;;8.87;43.05
15884;BME280;8040;50.254;10.960;2023-04-07T08:25:22;98173.50;;;8.82;42.88
15884;BME280;8040;50.254;10.960;2023-04-07T08:27:47;98124.78;;;8.64;43.34
15884;BME280;8040;50.254;10.960;2023-04-07T08:30:13;98113.91;;;8.69;42.75
15884;BME280;8040;50.254;10.960;2023-04-07T08:32:44;98182.41;;;9.25;42.40
15884;BME280;8040;50.254;10.960;2023-04-07T08:35:10;98114.47;;;8.89;42.59
15884;BME280;8040;50.254;10.960;2023-04-07T08:37:37;98199.44;;;9.44;42.50
15884;BME280;8040;50.254;10.960;2023-04-07T08:40:04;98169.59;;;9.30;41.68
15884;BME280;8040;50.254;10.960;2023-04-07T08:42:31;98203.19;;;9.48;42.06
15884;BME280;8040;50.254;10.960;2023-04-07T08:45:01;98200.63;;;9.56;41.68
15884;BME280;8040;50.254;10.960;2023-04-07T08:47:27;98173.69;;;9.46;41.73
15884;BME280;8040;50.254;10.960;2023-04-07T08:49:56;98134.47;;;9.25;42.08
15884;BME280;8040;50.254;10.960;2023-04-07T08:52:32;98171.56;;;9.62;42.08
15884;BME280;8040;50.254;10.960;2023-04-07T08:54:59;98101.84;;;9.35;42.20
15884;BME280;8040;50.254;10.960;2023-04-07T08:57:29;98190.66;;;10.02;41.95
15884;BME280;8040;50.254;10.960;2023-04-07T08:59:58;98138.00;;;9.76;41.23
15884;BME280;8040;50.254;10.960;2023-04-07T09:02:26;98141.63;;;9.85;40.42
15884;BME280;8040;50.254;10.960;2023-04-07T09:04:52;98158.56;;;9.77;40.40
15884;BME280;8040;50.254;10.960;2023-04-07T09:07:17;98164.94;;;9.68;40.58
15884;BME280;8040;50.254;10.960;2023-04-07T09:09:43;98173.91;;;9.82;40.88
15884;BME280;8040;50.254;10.960;2023-04-07T09:12:08;98162.94;;;9.92;40.80
15884;BME280;8040;50.254;10.960;2023-04-07T09:14:33;98188.59;;;10.13;40.33
15884;BME280;8040;50.254;10.960;2023-04-07T09:16:59;98153.00;;;9.87;40.06
15884;BME280;8040;50.254;10.960;2023-04-07T09:19:26;98152.59;;;9.94;40.13
15884;BME280;8040;50.254;10.960;2023-04-07T09:21:52;98103.56;;;9.77;40.09
15884;BME280;8040;50.254;10.960;2023-04-07T09:24:26;98145.84;;;10.10;40.01
15884;BME280;8040;50.254;10.960;2023-04-07T09:27:18;98173.28;;;10.49;40.20
15884;BME280;8040;50.254;10.960;2023-04-07T09:29:45;98106.88;;;10.06;39.79
15884;BME280;8040;50.254;10.960;2023-04-07T09:32:12;98154.22;;;10.27;38.50
15884;BME280;8040;50.254;10.960;2023-04-07T09:34:46;98129.50;;;10.15;38.80
15884;BME280;8040;50.254;10.960;2023-04-07T09:37:20;98131.28;;;10.19;39.06
15884;BME280;8040;50.254;10.960;2023-04-07T09:39:50;98121.25;;;10.20;39.18
15884;BME280;8040;50.254;10.960;2023-04-07T09:42:16;98122.38;;;10.46;38.81
15884;BME280;8040;50.254;10.960;2023-04-07T09:44:43;98148.28;;;10.79;38.89
15884;BME280;8040;50.254;10.960;2023-04-07T09:47:08;98122.25;;;10.78;38.56
15884;BME280;8040;50.254;10.960;2023-04-07T09:49:48;98157.34;;;11.23;38.06
15884;BME280;8040;50.254;10.960;2023-04-07T09:52:13;98166.22;;;11.51;37.68
15884;BME280;8040;50.254;10.960;2023-04-07T09:54:40;98131.47;;;11.39;37.99
15884;BME280;8040;50.254;10.960;2023-04-07T09:57:10;98140.94;;;11.64;37.39
15884;BME280;8040;50.254;10.960;2023-04-07T09:59:40;98148.59;;;11.84;36.70
15884;BME280;8040;50.254;10.960;2023-04-07T10:02:10;98138.72;;;11.88;37.14
15884;BME280;8040;50.254;10.960;2023-04-07T10:04:36;98157.72;;;12.10;36.46
15884;BME280;8040;50.254;10.960;2023-04-07T10:07:03;98071.50;;;11.58;35.58
15884;BME280;8040;50.254;10.960;2023-04-07T10:09:29;98150.66;;;12.09;34.61
15884;BME280;8040;50.254;10.960;2023-04-07T10:11:56;98078.81;;;11.71;34.58
15884;BME280;8040;50.254;10.960;2023-04-07T10:14:26;98082.75;;;11.87;34.76
15884;BME280;8040;50.254;10.960;2023-04-07T10:16:52;98096.41;;;11.95;34.15
15884;BME280;8040;50.254;10.960;2023-04-07T10:19:19;98132.66;;;12.21;33.67
15884;BME280;8040;50.254;10.960;2023-04-07T10:21:47;98095.59;;;11.95;34.34
15884;BME280;8040;50.254;10.960;2023-04-07T10:24:23;98143.72;;;12.25;33.30
15884;BME280;8040;50.254;10.960;2023-04-07T10:26:57;98108.16;;;12.13;33.28
15884;BME280;8040;50.254;10.960;2023-04-07T10:29:24;98095.59;;;11.95;33.15
15884;BME280;8040;50.254;10.960;2023-04-07T10:31:51;98144.59;;;12.34;33.63
15884;BME280;8040;50.254;10.960;2023-04-07T10:34:17;98098.53;;;12.07;33.59
15884;BME280;8040;50.254;10.960;2023-04-07T10:37:13;98100.75;;;12.05;33.03
15884;BME280;8040;50.254;10.960;2023-04-07T10:39:42;98144.06;;;12.32;32.88
15884;BME280;8040;50.254;10.960;2023-04-07T10:45:02;98052.13;;;11.51;31.32
15884;BME280;8040;50.254;10.960;2023-04-07T10:47:28;98087.91;;;11.66;32.60
15884;BME280;8040;50.254;10.960;2023-04-07T10:50:15;98041.84;;;11.39;32.34
15884;BME280;8040;50.254;10.960;2023-04-07T10:52:41;98084.44;;;11.74;32.10
15884;BME280;8040;50.254;10.960;2023-04-07T10:55:40;98132.75;;;12.38;32.47
15884;BME280;8040;50.254;10.960;2023-04-07T10:58:25;98140.16;;;12.46;30.88
15884;BME280;8040;50.254;10.960;2023-04-07T11:03:26;98138.94;;;12.69;31.46
15884;BME280;8040;50.254;10.960;2023-04-07T11:05:52;98114.78;;;12.76;31.50
15884;BME280;8040;50.254;10.960;2023-04-07T11:08:33;98077.59;;;12.55;29.73
15884;BME280;8040;50.254;10.960;2023-04-07T11:10:59;98117.38;;;12.34;30.01
15884;BME280;8040;50.254;10.960;2023-04-07T11:13:25;98097.53;;;12.03;30.22
15884;BME280;8040;50.254;10.960;2023-04-07T11:15:51;98128.09;;;12.39;30.54
15884;BME280;8040;50.254;10.960;2023-04-07T11:18:21;98072.03;;;12.21;30.53
15884;BME280;8040;50.254;10.960;2023-04-07T11:20:54;98112.31;;;12.49;30.74
15884;BME280;8040;50.254;10.960;2023-04-07T11:23:22;98109.03;;;12.69;30.52
15884;BME280;8040;50.254;10.960;2023-04-07T11:25:51;98095.63;;;12.42;29.90
15884;BME280;8040;50.254;10.960;2023-04-07T11:28:17;98110.41;;;12.58;29.60
15884;BME280;8040;50.254;10.960;2023-04-07T11:30:53;98066.44;;;12.65;29.79
15884;BME280;8040;50.254;10.960;2023-04-07T11:33:22;98099.66;;;13.09;29.48
15884;BME280;8040;50.254;10.960;2023-04-07T11:38:14;98104.81;;;13.62;29.28
15884;BME280;8040;50.254;10.960;2023-04-07T11:40:40;98104.78;;;13.70;28.47
15884;BME280;8040;50.254;10.960;2023-04-07T11:43:17;98044.06;;;13.36;27.88
15884;BME280;8040;50.254;10.960;2023-04-07T11:45:42;98103.84;;;13.58;27.68
15884;BME280;8040;50.254;10.960;2023-04-07T11:48:28;98115.53;;;13.58;27.84
15884;BME280;8040;50.254;10.960;2023-04-07T11:50:53;98110.44;;;13.65;28.17
15884;BME280;8040;50.254;10.960;2023-04-07T11:53:30;98113.31;;;13.52;27.40
15884;BME280;8040;50.254;10.960;2023-04-07T11:56:04;98046.78;;;12.85;27.86
15884;BME280;8040;50.254;10.960;2023-04-07T11:58:30;98116.19;;;13.30;27.60
15884;BME280;8040;50.254;10.960;2023-04-07T12:00:57;98055.09;;;12.88;27.93
15884;BME280;8040;50.254;10.960;2023-04-07T12:03:23;98059.09;;;12.82;27.96
15884;BME280;8040;50.254;10.960;2023-04-07T12:05:49;98094.22;;;13.18;28.48
15884;BME280;8040;50.254;10.960;2023-04-07T12:08:15;98091.81;;;13.42;28.26
15884;BME280;8040;50.254;10.960;2023-04-07T12:10:41;98097.94;;;13.56;27.65
15884;BME280;8040;50.254;10.960;2023-04-07T12:13:07;98097.78;;;13.44;27.49
15884;BME280;8040;50.254;10.960;2023-04-07T12:15:33;98110.28;;;13.53;27.29
15884;BME280;8040;50.254;10.960;2023-04-07T12:17:58;98113.00;;;13.62;27.64
15884;BME280;8040;50.254;10.960;2023-04-07T12:20:25;98045.66;;;13.37;27.79
15884;BME280;8040;50.254;10.960;2023-04-07T12:22:51;98093.41;;;13.77;28.05
15884;BME280;8040;50.254;10.960;2023-04-07T12:25:17;98122.22;;;14.12;28.15
15884;BME280;8040;50.254;10.960;2023-04-07T12:27:42;98096.56;;;13.96;27.63
15884;BME280;8040;50.254;10.960;2023-04-07T12:30:08;98113.03;;;14.16;27.56
15884;BME280;8040;50.254;10.960;2023-04-07T12:32:33;98092.41;;;13.90;26.94
15884;BME280;8040;50.254;10.960;2023-04-07T12:35:00;98107.47;;;13.96;27.08
15884;BME280;8040;50.254;10.960;2023-04-07T12:37:25;98095.41;;;14.05;27.77
15884;BME280;8040;50.254;10.960;2023-04-07T12:39:51;98073.25;;;14.15;28.17
15884;BME280;8040;50.254;10.960;2023-04-07T12:42:16;98071.31;;;14.24;27.77
15884;BME280;8040;50.254;10.960;2023-04-07T12:44:42;98090.94;;;14.47;27.42
15884;BME280;8040;50.254;10.960;2023-04-07T12:47:07;98040.53;;;14.15;26.94
15884;BME280;8040;50.254;10.960;2023-04-07T12:49:33;98106.69;;;14.50;27.25
15884;BME280;8040;50.254;10.960;2023-04-07T12:51:58;98069.06;;;14.26;27.27
15884;BME280;8040;50.254;10.960;2023-04-07T12:54:24;98112.41;;;14.19;26.90
15884;BME280;8040;50.254;10.960;2023-04-07T12:56:49;98120.75;;;14.14;27.56
15884;BME280;8040;50.254;10.960;2023-04-07T12:59:15;98092.84;;;14.00;27.16
15884;BME280;8040;50.254;10.960;2023-04-07T13:01:41;98112.94;;;13.96;27.53
15884;BME280;8040;50.254;10.960;2023-04-07T13:04:07;98116.75;;;14.12;27.83
15884;BME280;8040;50.254;10.960;2023-04-07T13:06:33;98116.09;;;14.06;27.11
15884;BME280;8040;50.254;10.960;2023-04-07T13:08:58;98068.66;;;13.99;27.67
15884;BME280;8040;50.254;10.960;2023-04-07T13:11:24;98064.41;;;14.18;27.51
15884;BME280;8040;50.254;10.960;2023-04-07T13:13:49;98079.28;;;14.38;26.88
15884;BME280;8040;50.254;10.960;2023-04-07T13:16:15;98090.03;;;14.43;26.90
15884;BME280;8040;50.254;10.960;2023-04-07T13:18:40;98061.63;;;14.35;26.87
15884;BME280;8040;50.254;10.960;2023-04-07T13:21:06;98088.72;;;14.49;27.37
15884;BME280;8040;50.254;10.960;2023-04-07T13:23:31;98073.97;;;14.41;27.17
15884;BME280;8040;50.254;10.960;2023-04-07T13:25:57;98096.63;;;14.71;26.93
15884;BME280;8040;50.254;10.960;2023-04-07T13:28:22;98107.03;;;14.77;27.01